sensor_id;sensor_type;location;lat;lon;timestamp;temperature;humidity
27266;DHT22;14766;51.380;13.762;2023-02-15T00:01:48;4.10;67.90
27266;DHT22;14766;51.380;13.762;2023-02-15T00:04:22;4.10;68.00
27266;DHT22;14766;51.380;13.762;2023-02-15T00:06:49;4.10;67.90
27266;DHT22;14766;51.380;13.762;2023-02-15T00:09:16;4.10;68.00
27266;DHT22;14766;51.380;13.762;2023-02-15T00:11:43;4.00;67.90
27266;DHT22;14766;51.380;13.762;2023-02-15T00:14:21;4.00;67.90
27266;DHT22;14766;51.380;13.762;2023-02-15T00:16:50;4.00;67.80
27266;DHT22;14766;51.380;13.762;2023-02-15T00:19:19;4.00;68.60
27266;DHT22;14766;51.380;13.762;2023-02-15T00:21:47;4.00;67.80
27266;DHT22;14766;51.380;13.762;2023-02-15T00:24:16;4.00;67.80
27266;DHT22;14766;51.380;13.762;2023-02-15T00:26:45;4.00;67.90
27266;DHT22;14766;51.380;13.762;2023-02-15T00:29:14;4.00;67.90
27266;DHT22;14766;51.380;13.762;2023-02-15T00:31:41;3.90;67.90
27266;DHT22;14766;51.380;13.762;2023-02-15T00:34:15;3.90;67.80
27266;DHT22;14766;51.380;13.762;2023-02-15T00:36:43;3.90;67.80
27266;DHT22;14766;51.380;13.762;2023-02-15T00:39:10;3.90;67.70
27266;DHT22;14766;51.380;13.762;2023-02-15T00:41:38;3.90;67.90
27266;DHT22;14766;51.380;13.762;2023-02-15T00:44:06;3.90;68.10
27266;DHT22;14766;51.380;13.762;2023-02-15T00:46:34;3.80;68.10
27266;DHT22;14766;51.380;13.762;2023-02-15T00:49:02;3.80;68.20
27266;DHT22;14766;51.380;13.762;2023-02-15T00:51:30;3.80;68.10
27266;DHT22;14766;51.380;13.762;2023-02-15T00:53:57;3.80;68.10
27266;DHT22;14766;51.380;13.762;2023-02-15T00:56:24;3.80;68.20
27266;DHT22;14766;51.380;13.762;2023-02-15T00:58:51;3.80;68.30
27266;DHT22;14766;51.380;13.762;2023-02-15T01:01:20;3.80;68.30
27266;DHT22;14766;51.380;13.762;2023-02-15T01:03:50;3.80;68.30
27266;DHT22;14766;51.380;13.762;2023-02-15T01:06:18;3.80;68.30
27266;DHT22;14766;51.380;13.762;2023-02-15T01:08:47;3.80;68.20
27266;DHT22;14766;51.380;13.762;2023-02-15T01:11:17;3.80;68.30
27266;DHT22;14766;51.380;13.762;2023-02-15T01:13:51;3.80;68.20
27266;DHT22;14766;51.380;13.762;2023-02-15T01:16:19;3.80;68.10
27266;DHT22;14766;51.380;13.762;2023-02-15T01:18:47;3.80;68.10
27266;DHT22;14766;51.380;13.762;2023-02-15T01:21:17;3.80;68.20
27266;DHT22;14766;51.380;13.762;2023-02-15T01:23:45;3.80;68.40
27266;DHT22;14766;51.380;13.762;2023-02-15T01:26:13;3.80;68.70
27266;DHT22;14766;51.380;13.762;2023-02-15T01:28:43;3.90;69.10
27266;DHT22;14766;51.380;13.762;2023-02-15T01:31:15;3.90;69.30
27266;DHT22;14766;51.380;13.762;2023-02-15T01:33:45;3.90;69.50
27266;DHT22;14766;51.380;13.762;2023-02-15T01:36:13;4.00;69.90
27266;DHT22;14766;51.380;13.762;2023-02-15T01:38:43;4.00;70.20
27266;DHT22;14766;51.380;13.762;2023-02-15T01:41:11;4.00;70.30
27266;DHT22;14766;51.380;13.762;2023-02-15T01:43:52;4.00;70.20
27266;DHT22;14766;51.380;13.762;2023-02-15T01:46:23;4.10;69.80
27266;DHT22;14766;51.380;13.762;2023-02-15T01:48:55;4.10;69.40
27266;DHT22;14766;51.380;13.762;2023-02-15T01:51:27;4.10;69.20
27266;DHT22;14766;51.380;13.762;2023-02-15T01:54:10;4.10;68.70
27266;DHT22;14766;51.380;13.762;2023-02-15T01:56:38;4.10;68.40
27266;DHT22;14766;51.380;13.762;2023-02-15T01:59:11;4.10;68.30
27266;DHT22;14766;51.380;13.762;2023-02-15T02:01:42;4.00;68.00
27266;DHT22;14766;51.380;13.762;2023-02-15T02:04:15;4.00;68.10
27266;DHT22;14766;51.380;13.762;2023-02-15T02:06:46;4.00;68.00
27266;DHT22;14766;51.380;13.762;2023-02-15T02:09:14;4.00;67.80
27266;DHT22;14766;51.380;13.762;2023-02-15T02:11:45;3.90;67.70
27266;DHT22;14766;51.380;13.762;2023-02-15T02:14:13;3.90;67.70
27266;DHT22;14766;51.380;13.762;2023-02-15T02:28:17;3.80;67.30
27266;DHT22;14766;51.380;13.762;2023-02-15T02:37:23;3.70;67.20
27266;DHT22;14766;51.380;13.762;2023-02-15T02:40:24;3.70;67.40
27266;DHT22;14766;51.380;13.762;2023-02-15T02:43:08;3.70;67.10
27266;DHT22;14766;51.380;13.762;2023-02-15T02:45:44;3.60;67.00
27266;DHT22;14766;51.380;13.762;2023-02-15T02:48:16;3.60;67.00
27266;DHT22;14766;51.380;13.762;2023-02-15T02:50:48;3.60;67.20
27266;DHT22;14766;51.380;13.762;2023-02-15T02:53:15;3.50;67.40
27266;DHT22;14766;51.380;13.762;2023-02-15T02:55:56;3.50;67.60
27266;DHT22;14766;51.380;13.762;2023-02-15T02:58:36;3.50;67.70
27266;DHT22;14766;51.380;13.762;2023-02-15T03:01:17;3.50;67.70
27266;DHT22;14766;51.380;13.762;2023-02-15T03:04:03;3.50;67.50
27266;DHT22;14766;51.380;13.762;2023-02-15T03:09:51;3.50;67.50
27266;DHT22;14766;51.380;13.762;2023-02-15T03:12:24;3.50;67.50
27266;DHT22;14766;51.380;13.762;2023-02-15T03:15:01;3.50;67.50
27266;DHT22;14766;51.380;13.762;2023-02-15T03:17:32;3.50;67.40
27266;DHT22;14766;51.380;13.762;2023-02-15T03:20:04;3.50;67.30
27266;DHT22;14766;51.380;13.762;2023-02-15T03:22:39;3.50;67.30
27266;DHT22;14766;51.380;13.762;2023-02-15T03:25:18;3.50;67.20
27266;DHT22;14766;51.380;13.762;2023-02-15T03:27:50;3.40;67.20
27266;DHT22;14766;51.380;13.762;2023-02-15T03:30:21;3.50;67.50
27266;DHT22;14766;51.380;13.762;2023-02-15T03:32:50;3.40;67.40
27266;DHT22;14766;51.380;13.762;2023-02-15T03:35:20;3.50;67.50
27266;DHT22;14766;51.380;13.762;2023-02-15T03:37:57;3.40;67.50
27266;DHT22;14766;51.380;13.762;2023-02-15T03:40:37;3.40;67.50
27266;DHT22;14766;51.380;13.762;2023-02-15T03:46:37;3.40;67.40
27266;DHT22;14766;51.380;13.762;2023-02-15T03:49:10;3.40;67.30
27266;DHT22;14766;51.380;13.762;2023-02-15T03:51:40;3.40;67.20
27266;DHT22;14766;51.380;13.762;2023-02-15T03:57:01;3.40;67.10
27266;DHT22;14766;51.380;13.762;2023-02-15T03:59:47;3.30;67.20
27266;DHT22;14766;51.380;13.762;2023-02-15T04:05:18;3.30;67.20
27266;DHT22;14766;51.380;13.762;2023-02-15T04:07:45;3.30;67.30
27266;DHT22;14766;51.380;13.762;2023-02-15T04:10:12;3.30;67.30
27266;DHT22;14766;51.380;13.762;2023-02-15T04:12:58;3.30;67.50
27266;DHT22;14766;51.380;13.762;2023-02-15T04:15:25;3.30;67.80
27266;DHT22;14766;51.380;13.762;2023-02-15T04:18:10;3.20;67.90
27266;DHT22;14766;51.380;13.762;2023-02-15T04:20:37;3.20;68.00
27266;DHT22;14766;51.380;13.762;2023-02-15T04:23:23;3.30;68.10
27266;DHT22;14766;51.380;13.762;2023-02-15T04:26:09;3.20;68.10
27266;DHT22;14766;51.380;13.762;2023-02-15T04:28:36;3.20;68.10
27266;DHT22;14766;51.380;13.762;2023-02-15T04:31:03;3.20;68.00
27266;DHT22;14766;51.380;13.762;2023-02-15T04:33:30;3.20;68.10
27266;DHT22;14766;51.380;13.762;2023-02-15T04:35:57;3.20;68.10
27266;DHT22;14766;51.380;13.762;2023-02-15T04:38:24;3.20;68.20
27266;DHT22;14766;51.380;13.762;2023-02-15T04:40:51;3.20;68.50
27266;DHT22;14766;51.380;13.762;2023-02-15T04:43:19;3.20;68.60
27266;DHT22;14766;51.380;13.762;2023-02-15T04:45:50;3.20;69.70
27266;DHT22;14766;51.380;13.762;2023-02-15T04:48:17;3.30;69.00
27266;DHT22;14766;51.380;13.762;2023-02-15T04:50:45;3.30;68.90
27266;DHT22;14766;51.380;13.762;2023-02-15T04:53:12;3.30;68.80
27266;DHT22;14766;51.380;13.762;2023-02-15T04:55:39;3.30;68.70
27266;DHT22;14766;51.380;13.762;2023-02-15T04:58:06;3.30;68.80
27266;DHT22;14766;51.380;13.762;2023-02-15T05:00:33;3.30;69.00
27266;DHT22;14766;51.380;13.762;2023-02-15T05:03:00;3.30;68.90
27266;DHT22;14766;51.380;13.762;2023-02-15T05:05:27;3.30;69.00
27266;DHT22;14766;51.380;13.762;2023-02-15T05:07:54;3.30;69.20
27266;DHT22;14766;51.380;13.762;2023-02-15T05:10:21;3.30;69.50
27266;DHT22;14766;51.380;13.762;2023-02-15T05:12:48;3.30;69.60
27266;DHT22;14766;51.380;13.762;2023-02-15T05:15:16;3.40;69.80
27266;DHT22;14766;51.380;13.762;2023-02-15T05:17:43;3.40;69.80
27266;DHT22;14766;51.380;13.762;2023-02-15T05:20:10;3.40;70.00
27266;DHT22;14766;51.380;13.762;2023-02-15T05:22:37;3.40;70.00
27266;DHT22;14766;51.380;13.762;2023-02-15T05:25:04;3.40;70.00
27266;DHT22;14766;51.380;13.762;2023-02-15T05:28:11;3.50;69.90
27266;DHT22;14766;51.380;13.762;2023-02-15T05:30:50;3.50;70.00
27266;DHT22;14766;51.380;13.762;2023-02-15T05:33:18;3.50;70.40
27266;DHT22;14766;51.380;13.762;2023-02-15T05:35:44;3.60;70.90
27266;DHT22;14766;51.380;13.762;2023-02-15T05:38:11;3.60;71.40
27266;DHT22;14766;51.380;13.762;2023-02-15T05:40:38;3.70;71.50
27266;DHT22;14766;51.380;13.762;2023-02-15T05:43:05;3.70;71.60
27266;DHT22;14766;51.380;13.762;2023-02-15T05:45:33;3.70;71.50
27266;DHT22;14766;51.380;13.762;2023-02-15T05:48:00;3.70;71.40
27266;DHT22;14766;51.380;13.762;2023-02-15T05:50:27;3.80;71.50
27266;DHT22;14766;51.380;13.762;2023-02-15T05:52:57;3.80;71.30
27266;DHT22;14766;51.380;13.762;2023-02-15T05:55:24;3.80;71.30
27266;DHT22;14766;51.380;13.762;2023-02-15T05:57:51;3.80;71.30
27266;DHT22;14766;51.380;13.762;2023-02-15T06:00:18;3.80;71.30
27266;DHT22;14766;51.380;13.762;2023-02-15T06:02:46;3.90;71.20
27266;DHT22;14766;51.380;13.762;2023-02-15T06:05:13;3.90;71.00
27266;DHT22;14766;51.380;13.762;2023-02-15T06:07:43;3.90;70.90
27266;DHT22;14766;51.380;13.762;2023-02-15T06:10:11;3.90;70.80
27266;DHT22;14766;51.380;13.762;2023-02-15T06:12:38;3.90;70.70
27266;DHT22;14766;51.380;13.762;2023-02-15T06:15:05;3.90;70.50
27266;DHT22;14766;51.380;13.762;2023-02-15T06:17:33;3.90;70.40
27266;DHT22;14766;51.380;13.762;2023-02-15T06:20:00;3.90;70.30
27266;DHT22;14766;51.380;13.762;2023-02-15T06:22:27;3.80;70.10
27266;DHT22;14766;51.380;13.762;2023-02-15T06:24:54;3.90;70.10
27266;DHT22;14766;51.380;13.762;2023-02-15T06:27:22;3.80;69.90
27266;DHT22;14766;51.380;13.762;2023-02-15T06:29:49;3.90;70.10
27266;DHT22;14766;51.380;13.762;2023-02-15T06:32:16;3.80;70.30
27266;DHT22;14766;51.380;13.762;2023-02-15T06:34:43;3.90;70.70
27266;DHT22;14766;51.380;13.762;2023-02-15T06:37:10;3.80;70.70
27266;DHT22;14766;51.380;13.762;2023-02-15T06:39:37;3.80;70.90
27266;DHT22;14766;51.380;13.762;2023-02-15T06:42:04;3.80;71.00
27266;DHT22;14766;51.380;13.762;2023-02-15T06:44:31;3.90;71.20
27266;DHT22;14766;51.380;13.762;2023-02-15T06:46:58;3.90;71.20
27266;DHT22;14766;51.380;13.762;2023-02-15T06:49:28;3.90;71.40
27266;DHT22;14766;51.380;13.762;2023-02-15T06:51:55;4.00;71.90
27266;DHT22;14766;51.380;13.762;2023-02-15T06:54:22;4.10;72.00
27266;DHT22;14766;51.380;13.762;2023-02-15T06:56:49;4.20;72.10
27266;DHT22;14766;51.380;13.762;2023-02-15T06:59:16;4.40;72.30
27266;DHT22;14766;51.380;13.762;2023-02-15T07:01:43;4.60;72.50
27266;DHT22;14766;51.380;13.762;2023-02-15T07:04:10;4.80;73.00
27266;DHT22;14766;51.380;13.762;2023-02-15T07:06:37;5.10;73.30
27266;DHT22;14766;51.380;13.762;2023-02-15T07:09:04;5.60;73.50
27266;DHT22;14766;51.380;13.762;2023-02-15T07:11:31;6.00;73.50
27266;DHT22;14766;51.380;13.762;2023-02-15T07:14:17;6.50;73.30
27266;DHT22;14766;51.380;13.762;2023-02-15T07:16:44;7.10;73.10
27266;DHT22;14766;51.380;13.762;2023-02-15T07:19:11;7.60;72.20
27266;DHT22;14766;51.380;13.762;2023-02-15T07:21:38;8.10;71.20
27266;DHT22;14766;51.380;13.762;2023-02-15T07:24:05;8.60;70.20
27266;DHT22;14766;51.380;13.762;2023-02-15T07:26:32;9.10;68.80
27266;DHT22;14766;51.380;13.762;2023-02-15T07:28:59;9.60;68.50
27266;DHT22;14766;51.380;13.762;2023-02-15T07:31:26;10.10;67.70
27266;DHT22;14766;51.380;13.762;2023-02-15T07:33:53;10.60;67.40
27266;DHT22;14766;51.380;13.762;2023-02-15T07:36:21;11.00;65.90
27266;DHT22;14766;51.380;13.762;2023-02-15T07:38:48;11.50;65.40
27266;DHT22;14766;51.380;13.762;2023-02-15T07:41:15;11.90;62.60
27266;DHT22;14766;51.380;13.762;2023-02-15T07:43:44;12.40;62.30
27266;DHT22;14766;51.380;13.762;2023-02-15T07:46:14;12.80;60.80
27266;DHT22;14766;51.380;13.762;2023-02-15T07:48:43;13.20;59.30
27266;DHT22;14766;51.380;13.762;2023-02-15T07:51:11;13.70;58.70
27266;DHT22;14766;51.380;13.762;2023-02-15T07:53:39;14.00;58.30
27266;DHT22;14766;51.380;13.762;2023-02-15T07:56:11;14.40;56.60
27266;DHT22;14766;51.380;13.762;2023-02-15T07:58:39;14.70;55.60
27266;DHT22;14766;51.380;13.762;2023-02-15T08:01:30;15.00;53.40
27266;DHT22;14766;51.380;13.762;2023-02-15T08:03:58;15.40;52.30
27266;DHT22;14766;51.380;13.762;2023-02-15T08:06:29;15.60;52.00
27266;DHT22;14766;51.380;13.762;2023-02-15T08:08:56;15.80;51.60
27266;DHT22;14766;51.380;13.762;2023-02-15T08:11:25;16.00;50.50
27266;DHT22;14766;51.380;13.762;2023-02-15T08:13:57;16.20;51.10
27266;DHT22;14766;51.380;13.762;2023-02-15T08:18:57;16.70;50.30
27266;DHT22;14766;51.380;13.762;2023-02-15T08:21:28;16.80;48.60
27266;DHT22;14766;51.380;13.762;2023-02-15T08:23:56;17.10;48.20
27266;DHT22;14766;51.380;13.762;2023-02-15T08:26:24;17.20;47.20
27266;DHT22;14766;51.380;13.762;2023-02-15T08:28:52;17.40;47.50
27266;DHT22;14766;51.380;13.762;2023-02-15T08:31:20;17.60;46.00
27266;DHT22;14766;51.380;13.762;2023-02-15T08:33:49;17.70;45.90
27266;DHT22;14766;51.380;13.762;2023-02-15T08:36:19;17.80;46.10
27266;DHT22;14766;51.380;13.762;2023-02-15T08:38:46;17.90;45.80
27266;DHT22;14766;51.380;13.762;2023-02-15T08:41:17;18.10;45.30
27266;DHT22;14766;51.380;13.762;2023-02-15T08:43:51;18.30;44.90
27266;DHT22;14766;51.380;13.762;2023-02-15T08:46:18;18.50;44.60
27266;DHT22;14766;51.380;13.762;2023-02-15T08:48:46;18.60;44.20
27266;DHT22;14766;51.380;13.762;2023-02-15T08:51:16;18.80;43.50
27266;DHT22;14766;51.380;13.762;2023-02-15T08:53:46;19.00;42.40
27266;DHT22;14766;51.380;13.762;2023-02-15T08:56:17;19.10;42.20
27266;DHT22;14766;51.380;13.762;2023-02-15T08:58:45;19.30;41.40
27266;DHT22;14766;51.380;13.762;2023-02-15T09:01:18;19.30;41.40
27266;DHT22;14766;51.380;13.762;2023-02-15T09:03:48;19.50;41.10
27266;DHT22;14766;51.380;13.762;2023-02-15T09:06:17;19.60;40.90
27266;DHT22;14766;51.380;13.762;2023-02-15T09:08:44;19.70;40.80
27266;DHT22;14766;51.380;13.762;2023-02-15T09:11:14;19.80;40.30
27266;DHT22;14766;51.380;13.762;2023-02-15T09:13:55;19.90;39.10
27266;DHT22;14766;51.380;13.762;2023-02-15T09:16:24;20.00;38.80
27266;DHT22;14766;51.380;13.762;2023-02-15T09:18:52;20.00;38.00
27266;DHT22;14766;51.380;13.762;2023-02-15T09:21:21;20.00;38.20
27266;DHT22;14766;51.380;13.762;2023-02-15T09:23:50;20.00;38.50
27266;DHT22;14766;51.380;13.762;2023-02-15T09:26:22;20.10;39.00
27266;DHT22;14766;51.380;13.762;2023-02-15T09:28:54;20.10;39.00
27266;DHT22;14766;51.380;13.762;2023-02-15T09:31:25;20.20;37.20
27266;DHT22;14766;51.380;13.762;2023-02-15T09:33:53;20.20;37.80
27266;DHT22;14766;51.380;13.762;2023-02-15T09:36:26;20.20;37.20
27266;DHT22;14766;51.380;13.762;2023-02-15T10:09:14;19.80;35.00
27266;DHT22;14766;51.380;13.762;2023-02-15T10:12:03;19.80;35.10
27266;DHT22;14766;51.380;13.762;2023-02-15T10:18:00;19.70;34.90
27266;DHT22;14766;51.380;13.762;2023-02-15T10:20:55;19.50;34.70
27266;DHT22;14766;51.380;13.762;2023-02-15T10:26:21;19.30;35.40
27266;DHT22;14766;51.380;13.762;2023-02-15T10:28:53;19.10;35.30
27266;DHT22;14766;51.380;13.762;2023-02-15T10:39:41;18.80;36.90
27266;DHT22;14766;51.380;13.762;2023-02-15T10:45:23;18.80;36.80
27266;DHT22;14766;51.380;13.762;2023-02-15T10:50:55;18.80;36.70
27266;DHT22;14766;51.380;13.762;2023-02-15T11:06:54;18.50;37.90
27266;DHT22;14766;51.380;13.762;2023-02-15T11:09:27;18.50;37.60
27266;DHT22;14766;51.380;13.762;2023-02-15T11:11:57;18.50;37.90
27266;DHT22;14766;51.380;13.762;2023-02-15T11:14:42;18.50;38.80
27266;DHT22;14766;51.380;13.762;2023-02-15T11:17:14;18.50;38.10
27266;DHT22;14766;51.380;13.762;2023-02-15T11:22:32;18.60;37.00
27266;DHT22;14766;51.380;13.762;2023-02-15T11:25:02;18.70;37.20
27266;DHT22;14766;51.380;13.762;2023-02-15T11:27:32;18.70;36.90
27266;DHT22;14766;51.380;13.762;2023-02-15T11:30:12;18.60;37.00
27266;DHT22;14766;51.380;13.762;2023-02-15T11:32:43;18.60;37.60
27266;DHT22;14766;51.380;13.762;2023-02-15T11:40:35;18.60;37.70
27266;DHT22;14766;51.380;13.762;2023-02-15T11:43:16;18.70;37.90
27266;DHT22;14766;51.380;13.762;2023-02-15T11:45:45;18.80;37.80
27266;DHT22;14766;51.380;13.762;2023-02-15T11:48:14;18.80;37.70
27266;DHT22;14766;51.380;13.762;2023-02-15T11:50:43;18.90;37.10
27266;DHT22;14766;51.380;13.762;2023-02-15T11:53:16;18.90;37.40
27266;DHT22;14766;51.380;13.762;2023-02-15T11:55:46;18.90;37.30
27266;DHT22;14766;51.380;13.762;2023-02-15T11:59:24;18.90;37.20
27266;DHT22;14766;51.380;13.762;2023-02-15T12:01:18;18.90;37.40
27266;DHT22;14766;51.380;13.762;2023-02-15T12:03:54;18.90;37.40
27266;DHT22;14766;51.380;13.762;2023-02-15T12:06:28;18.80;37.70
27266;DHT22;14766;51.380;13.762;2023-02-15T12:09:22;18.70;38.00
27266;DHT22;14766;51.380;13.762;2023-02-15T12:11:52;18.70;38.20
27266;DHT22;14766;51.380;13.762;2023-02-15T12:14:19;18.60;38.80
27266;DHT22;14766;51.380;13.762;2023-02-15T12:16:49;18.60;38.90
27266;DHT22;14766;51.380;13.762;2023-02-15T12:19:32;18.50;38.20
27266;DHT22;14766;51.380;13.762;2023-02-15T12:22:04;18.40;38.00
27266;DHT22;14766;51.380;13.762;2023-02-15T12:24:44;18.30;38.30
27266;DHT22;14766;51.380;13.762;2023-02-15T12:27:17;18.20;38.20
27266;DHT22;14766;51.380;13.762;2023-02-15T12:32:24;17.90;38.50
27266;DHT22;14766;51.380;13.762;2023-02-15T12:34:59;17.80;38.20
27266;DHT22;14766;51.380;13.762;2023-02-15T12:37:28;17.70;38.60
27266;DHT22;14766;51.380;13.762;2023-02-15T12:39:59;17.50;38.70
27266;DHT22;14766;51.380;13.762;2023-02-15T12:42:39;17.40;38.90
27266;DHT22;14766;51.380;13.762;2023-02-15T12:45:34;17.30;39.30
27266;DHT22;14766;51.380;13.762;2023-02-15T12:48:18;17.20;39.70
27266;DHT22;14766;51.380;13.762;2023-02-15T12:50:50;17.10;39.70
27266;DHT22;14766;51.380;13.762;2023-02-15T12:53:29;17.00;39.90
27266;DHT22;14766;51.380;13.762;2023-02-15T12:55:59;16.90;40.40
27266;DHT22;14766;51.380;13.762;2023-02-15T12:58:32;16.90;40.90
27266;DHT22;14766;51.380;13.762;2023-02-15T13:01:17;16.80;41.10
27266;DHT22;14766;51.380;13.762;2023-02-15T13:03:57;16.70;41.20
27266;DHT22;14766;51.380;13.762;2023-02-15T13:06:26;16.60;41.40
27266;DHT22;14766;51.380;13.762;2023-02-15T13:08:57;16.60;41.60
27266;DHT22;14766;51.380;13.762;2023-02-15T13:11:30;16.50;41.80
27266;DHT22;14766;51.380;13.762;2023-02-15T13:16:45;16.40;41.90
27266;DHT22;14766;51.380;13.762;2023-02-15T13:19:16;16.30;42.20
27266;DHT22;14766;51.380;13.762;2023-02-15T13:21:47;16.30;42.20
27266;DHT22;14766;51.380;13.762;2023-02-15T13:24:18;16.20;42.20
27266;DHT22;14766;51.380;13.762;2023-02-15T13:26:48;16.10;42.40
27266;DHT22;14766;51.380;13.762;2023-02-15T13:29:27;16.10;42.60
27266;DHT22;14766;51.380;13.762;2023-02-15T13:31:58;16.00;42.80
27266;DHT22;14766;51.380;13.762;2023-02-15T13:34:39;15.90;42.60
27266;DHT22;14766;51.380;13.762;2023-02-15T13:37:33;15.90;42.70
27266;DHT22;14766;51.380;13.762;2023-02-15T13:42:59;15.80;43.20
27266;DHT22;14766;51.380;13.762;2023-02-15T13:54:08;15.60;43.40
27266;DHT22;14766;51.380;13.762;2023-02-15T14:06:13;15.30;44.00
27266;DHT22;14766;51.380;13.762;2023-02-15T14:16:49;15.00;44.40
27266;DHT22;14766;51.380;13.762;2023-02-15T14:25:17;14.80;44.90
27266;DHT22;14766;51.380;13.762;2023-02-15T14:28:11;14.70;45.10
27266;DHT22;14766;51.380;13.762;2023-02-15T14:30:44;14.70;45.40
27266;DHT22;14766;51.380;13.762;2023-02-15T14:33:48;14.60;45.60
27266;DHT22;14766;51.380;13.762;2023-02-15T14:36:18;14.50;45.70
27266;DHT22;14766;51.380;13.762;2023-02-15T14:45:22;14.30;46.10
27266;DHT22;14766;51.380;13.762;2023-02-15T14:48:11;14.30;46.00
27266;DHT22;14766;51.380;13.762;2023-02-15T14:50:42;14.20;45.90
27266;DHT22;14766;51.380;13.762;2023-02-15T15:01:35;13.90;46.30
27266;DHT22;14766;51.380;13.762;2023-02-15T15:04:06;13.90;46.20
27266;DHT22;14766;51.380;13.762;2023-02-15T15:06:41;13.80;46.20
27266;DHT22;14766;51.380;13.762;2023-02-15T15:09:37;13.70;46.30
27266;DHT22;14766;51.380;13.762;2023-02-15T15:14:49;13.60;46.50
27266;DHT22;14766;51.380;13.762;2023-02-15T15:20:56;13.50;46.70
27266;DHT22;14766;51.380;13.762;2023-02-15T15:26:27;13.40;47.00
27266;DHT22;14766;51.380;13.762;2023-02-15T15:28:58;13.30;47.00
27266;DHT22;14766;51.380;13.762;2023-02-15T15:34:31;13.10;47.30
27266;DHT22;14766;51.380;13.762;2023-02-15T15:37:24;13.10;47.40
27266;DHT22;14766;51.380;13.762;2023-02-15T15:40:15;13.10;47.80
27266;DHT22;14766;51.380;13.762;2023-02-15T15:48:31;12.90;47.70
27266;DHT22;14766;51.380;13.762;2023-02-15T15:51:21;12.80;47.60
27266;DHT22;14766;51.380;13.762;2023-02-15T15:53:52;12.70;47.70
27266;DHT22;14766;51.380;13.762;2023-02-15T15:56:25;12.70;47.80
27266;DHT22;14766;51.380;13.762;2023-02-15T15:59:01;12.60;47.80
27266;DHT22;14766;51.380;13.762;2023-02-15T16:01:34;12.50;47.80
27266;DHT22;14766;51.380;13.762;2023-02-15T16:04:02;12.50;48.00
27266;DHT22;14766;51.380;13.762;2023-02-15T16:06:33;12.40;48.00
27266;DHT22;14766;51.380;13.762;2023-02-15T16:11:38;12.20;48.00
27266;DHT22;14766;51.380;13.762;2023-02-15T16:14:26;12.20;48.20
27266;DHT22;14766;51.380;13.762;2023-02-15T16:16:58;12.00;48.30
27266;DHT22;14766;51.380;13.762;2023-02-15T16:19:38;12.00;48.60
27266;DHT22;14766;51.380;13.762;2023-02-15T16:22:18;11.80;48.60
27266;DHT22;14766;51.380;13.762;2023-02-15T16:25:19;11.70;49.00
27266;DHT22;14766;51.380;13.762;2023-02-15T16:27:50;11.60;49.30
27266;DHT22;14766;51.380;13.762;2023-02-15T16:30:31;11.50;49.60
27266;DHT22;14766;51.380;13.762;2023-02-15T16:33:16;11.40;49.80
27266;DHT22;14766;51.380;13.762;2023-02-15T16:35:55;11.30;50.00
27266;DHT22;14766;51.380;13.762;2023-02-15T16:41:15;11.10;50.50
27266;DHT22;14766;51.380;13.762;2023-02-15T16:43:45;10.90;50.60
27266;DHT22;14766;51.380;13.762;2023-02-15T16:46:38;10.90;50.90
27266;DHT22;14766;51.380;13.762;2023-02-15T16:49:24;10.80;51.30
27266;DHT22;14766;51.380;13.762;2023-02-15T16:52:00;10.70;51.60
27266;DHT22;14766;51.380;13.762;2023-02-15T16:54:28;10.60;51.90
27266;DHT22;14766;51.380;13.762;2023-02-15T16:56:57;10.50;52.20
27266;DHT22;14766;51.380;13.762;2023-02-15T16:59:35;10.40;52.20
27266;DHT22;14766;51.380;13.762;2023-02-15T17:02:12;10.30;52.40
27266;DHT22;14766;51.380;13.762;2023-02-15T17:08:24;10.10;52.80
27266;DHT22;14766;51.380;13.762;2023-02-15T17:13:17;9.90;53.30
27266;DHT22;14766;51.380;13.762;2023-02-15T17:21:17;9.60;53.90
27266;DHT22;14766;51.380;13.762;2023-02-15T17:23:50;9.50;54.20
27266;DHT22;14766;51.380;13.762;2023-02-15T17:26:24;9.40;55.00
27266;DHT22;14766;51.380;13.762;2023-02-15T17:28:55;9.30;54.70
27266;DHT22;14766;51.380;13.762;2023-02-15T17:31:31;9.20;54.80
27266;DHT22;14766;51.380;13.762;2023-02-15T17:34:00;9.10;54.90
27266;DHT22;14766;51.380;13.762;2023-02-15T17:36:30;9.10;55.00
27266;DHT22;14766;51.380;13.762;2023-02-15T17:41:28;9.00;54.70
27266;DHT22;14766;51.380;13.762;2023-02-15T17:43:56;8.90;54.90
27266;DHT22;14766;51.380;13.762;2023-02-15T17:46:25;8.90;54.60
27266;DHT22;14766;51.380;13.762;2023-02-15T17:48:54;8.90;54.60
27266;DHT22;14766;51.380;13.762;2023-02-15T17:51:23;8.90;54.60
27266;DHT22;14766;51.380;13.762;2023-02-15T17:53:50;8.80;54.40
27266;DHT22;14766;51.380;13.762;2023-02-15T17:56:37;8.80;54.50
27266;DHT22;14766;51.380;13.762;2023-02-15T17:59:05;8.80;54.50
27266;DHT22;14766;51.380;13.762;2023-02-15T18:01:34;8.80;54.40
27266;DHT22;14766;51.380;13.762;2023-02-15T18:04:24;8.70;54.70
27266;DHT22;14766;51.380;13.762;2023-02-15T18:07:12;8.70;54.60
27266;DHT22;14766;51.380;13.762;2023-02-15T18:09:58;8.60;54.70
27266;DHT22;14766;51.380;13.762;2023-02-15T18:12:44;8.60;54.80
27266;DHT22;14766;51.380;13.762;2023-02-15T18:15:11;8.50;55.10
27266;DHT22;14766;51.380;13.762;2023-02-15T18:17:44;8.50;54.90
27266;DHT22;14766;51.380;13.762;2023-02-15T18:20:22;8.40;55.30
27266;DHT22;14766;51.380;13.762;2023-02-15T18:22:51;8.40;55.40
27266;DHT22;14766;51.380;13.762;2023-02-15T18:25:21;8.30;55.60
27266;DHT22;14766;51.380;13.762;2023-02-15T18:27:51;8.30;56.10
27266;DHT22;14766;51.380;13.762;2023-02-15T18:30:22;8.20;56.00
27266;DHT22;14766;51.380;13.762;2023-02-15T18:32:56;8.20;56.20
27266;DHT22;14766;51.380;13.762;2023-02-15T18:35:29;8.10;56.20
27266;DHT22;14766;51.380;13.762;2023-02-15T18:37:59;8.10;56.70
27266;DHT22;14766;51.380;13.762;2023-02-15T18:40:28;8.00;56.80
27266;DHT22;14766;51.380;13.762;2023-02-15T18:42:55;8.00;56.80
27266;DHT22;14766;51.380;13.762;2023-02-15T18:45:25;7.90;57.00
27266;DHT22;14766;51.380;13.762;2023-02-15T18:47:54;7.80;56.70
27266;DHT22;14766;51.380;13.762;2023-02-15T18:50:23;7.90;56.70
27266;DHT22;14766;51.380;13.762;2023-02-15T18:52:54;7.80;56.80
27266;DHT22;14766;51.380;13.762;2023-02-15T18:55:23;7.80;57.00
27266;DHT22;14766;51.380;13.762;2023-02-15T18:57:53;7.80;57.10
27266;DHT22;14766;51.380;13.762;2023-02-15T19:00:29;7.80;57.50
27266;DHT22;14766;51.380;13.762;2023-02-15T19:02:59;7.80;57.60
27266;DHT22;14766;51.380;13.762;2023-02-15T19:05:29;7.70;57.50
27266;DHT22;14766;51.380;13.762;2023-02-15T19:07:57;7.70;57.70
27266;DHT22;14766;51.380;13.762;2023-02-15T19:10:27;7.70;57.70
27266;DHT22;14766;51.380;13.762;2023-02-15T19:12:56;7.60;57.70
27266;DHT22;14766;51.380;13.762;2023-02-15T19:15:26;7.60;58.10